sensor_id;sensor_type;location;lat;lon;timestamp;pressure;altitude;pressure_sealevel;temperature;humidity
23170;BME280;11753;43.144;24.714;2023-03-29T00:00:43;99960.50;;;2.22;66.83
23170;BME280;11753;43.144;24.714;2023-03-29T00:01:44;99964.41;;;2.15;67.22
23170;BME280;11753;43.144;24.714;2023-03-29T00:02:45;99992.03;;;2.16;67.32
23170;BME280;11753;43.144;24.714;2023-03-29T00:03:47;100021.81;;;2.10;67.50
23170;BME280;11753;43.144;24.714;2023-03-29T00:04:49;99965.69;;;2.08;67.80
23170;BME280;11753;43.144;24.714;2023-03-29T00:05:58;99960.56;;;2.06;68.17
23170;BME280;11753;43.144;24.714;2023-03-29T00:07:02;99986.19;;;2.12;67.98
23170;BME280;11753;43.144;24.714;2023-03-29T00:08:03;99966.69;;;2.05;67.76
23170;BME280;11753;43.144;24.714;2023-03-29T00:09:04;99972.47;;;2.10;67.81
23170;BME280;11753;43.144;24.714;2023-03-29T00:10:08;100006.78;;;2.15;67.53
23170;BME280;11753;43.144;24.714;2023-03-29T00:11:09;99997.41;;;2.13;67.57
23170;BME280;11753;43.144;24.714;2023-03-29T00:12:12;99991.28;;;2.14;67.95
23170;BME280;11753;43.144;24.714;2023-03-29T00:13:13;99977.47;;;2.13;67.83
23170;BME280;11753;43.144;24.714;2023-03-29T00:14:14;100004.66;;;2.08;67.90
23170;BME280;11753;43.144;24.714;2023-03-29T00:15:15;100004.19;;;2.01;68.31
23170;BME280;11753;43.144;24.714;2023-03-29T00:16:16;99998.78;;;2.04;68.25
23170;BME280;11753;43.144;24.714;2023-03-29T00:17:17;99997.75;;;2.07;67.88
23170;BME280;11753;43.144;24.714;2023-03-29T00:18:18;99983.94;;;2.06;67.91
23170;BME280;11753;43.144;24.714;2023-03-29T00:19:18;100001.13;;;2.09;67.72
23170;BME280;11753;43.144;24.714;2023-03-29T00:20:19;99995.25;;;2.05;67.64
23170;BME280;11753;43.144;24.714;2023-03-29T00:21:20;100019.31;;;2.09;67.56
23170;BME280;11753;43.144;24.714;2023-03-29T00:22:21;100004.56;;;2.09;67.54
23170;BME280;11753;43.144;24.714;2023-03-29T00:23:22;100015.03;;;2.08;67.63
23170;BME280;11753;43.144;24.714;2023-03-29T00:24:25;100020.03;;;2.11;67.83
23170;BME280;11753;43.144;24.714;2023-03-29T00:25:26;99998.16;;;2.01;67.89
23170;BME280;11753;43.144;24.714;2023-03-29T00:26:27;100010.00;;;2.05;68.01
23170;BME280;11753;43.144;24.714;2023-03-29T00:27:29;100007.50;;;2.03;67.95
23170;BME280;11753;43.144;24.714;2023-03-29T00:28:30;99998.06;;;2.02;68.05
23170;BME280;11753;43.144;24.714;2023-03-29T00:29:31;100031.63;;;2.05;67.68
23170;BME280;11753;43.144;24.714;2023-03-29T00:30:32;100022.91;;;2.06;67.37
23170;BME280;11753;43.144;24.714;2023-03-29T00:31:32;99990.25;;;2.02;67.37
23170;BME280;11753;43.144;24.714;2023-03-29T00:32:33;99997.13;;;2.03;67.84
23170;BME280;11753;43.144;24.714;2023-03-29T00:33:34;100005.50;;;2.08;67.48
23170;BME280;11753;43.144;24.714;2023-03-29T00:34:35;99989.78;;;1.96;67.88
23170;BME280;11753;43.144;24.714;2023-03-29T00:35:39;99986.94;;;2.00;67.65
23170;BME280;11753;43.144;24.714;2023-03-29T00:36:41;99981.19;;;2.09;67.29
23170;BME280;11753;43.144;24.714;2023-03-29T00:37:42;100050.38;;;2.10;67.19
23170;BME280;11753;43.144;24.714;2023-03-29T00:38:46;100012.34;;;2.09;67.00
23170;BME280;11753;43.144;24.714;2023-03-29T00:39:47;100001.22;;;2.07;67.11
23170;BME280;11753;43.144;24.714;2023-03-29T00:40:48;99998.06;;;2.16;67.22
23170;BME280;11753;43.144;24.714;2023-03-29T00:41:49;100001.59;;;2.15;66.76
23170;BME280;11753;43.144;24.714;2023-03-29T00:42:51;100005.28;;;2.11;66.83
23170;BME280;11753;43.144;24.714;2023-03-29T00:44:00;100002.44;;;2.16;66.46
23170;BME280;11753;43.144;24.714;2023-03-29T00:46:11;100003.28;;;2.16;66.51
23170;BME280;11753;43.144;24.714;2023-03-29T00:47:13;99991.03;;;2.18;66.46
23170;BME280;11753;43.144;24.714;2023-03-29T00:48:22;100012.53;;;2.20;66.24
23170;BME280;11753;43.144;24.714;2023-03-29T00:49:24;100007.28;;;2.22;66.48
23170;BME280;11753;43.144;24.714;2023-03-29T00:50:38;99991.94;;;2.17;66.47
23170;BME280;11753;43.144;24.714;2023-03-29T00:51:41;99997.53;;;2.26;66.11
23170;BME280;11753;43.144;24.714;2023-03-29T00:52:45;99982.94;;;2.09;65.90
23170;BME280;11753;43.144;24.714;2023-03-29T00:53:52;99991.56;;;2.09;66.51
23170;BME280;11753;43.144;24.714;2023-03-29T00:54:57;100020.88;;;2.11;66.32
23170;BME280;11753;43.144;24.714;2023-03-29T00:56:03;100005.00;;;2.02;66.65
23170;BME280;11753;43.144;24.714;2023-03-29T00:57:06;99997.22;;;2.02;66.59
23170;BME280;11753;43.144;24.714;2023-03-29T00:58:10;99990.06;;;2.05;66.89
23170;BME280;11753;43.144;24.714;2023-03-29T00:59:16;99997.13;;;2.03;66.48
23170;BME280;11753;43.144;24.714;2023-03-29T01:00:21;99986.72;;;2.03;66.35
23170;BME280;11753;43.144;24.714;2023-03-29T01:01:37;99996.28;;;2.03;66.62
23170;BME280;11753;43.144;24.714;2023-03-29T01:02:41;100007.50;;;2.03;66.50
23170;BME280;11753;43.144;24.714;2023-03-29T01:03:47;99999.03;;;2.00;66.19
23170;BME280;11753;43.144;24.714;2023-03-29T01:05:12;100002.66;;;1.97;66.61
23170;BME280;11753;43.144;24.714;2023-03-29T01:06:18;99994.31;;;1.92;67.03
23170;BME280;11753;43.144;24.714;2023-03-29T01:07:25;99993.78;;;2.01;66.58
23170;BME280;11753;43.144;24.714;2023-03-29T01:08:34;100014.22;;;2.07;66.30
23170;BME280;11753;43.144;24.714;2023-03-29T01:09:38;100023.94;;;2.04;66.26
23170;BME280;11753;43.144;24.714;2023-03-29T01:10:50;100012.97;;;1.99;66.58
23170;BME280;11753;43.144;24.714;2023-03-29T01:11:55;100003.03;;;1.91;66.51
23170;BME280;11753;43.144;24.714;2023-03-29T01:13:10;100008.00;;;1.80;66.76
23170;BME280;11753;43.144;24.714;2023-03-29T01:15:28;99991.84;;;1.75;67.08
23170;BME280;11753;43.144;24.714;2023-03-29T01:16:32;100004.09;;;1.73;67.28
23170;BME280;11753;43.144;24.714;2023-03-29T01:17:33;100016.72;;;1.79;67.08
23170;BME280;11753;43.144;24.714;2023-03-29T01:18:34;100007.09;;;1.81;67.17
23170;BME280;11753;43.144;24.714;2023-03-29T01:19:46;100020.75;;;1.69;67.32
23170;BME280;11753;43.144;24.714;2023-03-29T01:21:13;100027.72;;;1.68;67.28
23170;BME280;11753;43.144;24.714;2023-03-29T01:28:16;100008.47;;;1.56;68.15
23170;BME280;11753;43.144;24.714;2023-03-29T01:29:34;100020.09;;;1.65;67.87
23170;BME280;11753;43.144;24.714;2023-03-29T01:30:45;100010.06;;;1.59;67.84
23170;BME280;11753;43.144;24.714;2023-03-29T01:32:01;100025.47;;;1.62;68.13
23170;BME280;11753;43.144;24.714;2023-03-29T01:33:09;100023.53;;;1.65;67.87
23170;BME280;11753;43.144;24.714;2023-03-29T01:34:34;100007.81;;;1.53;68.51
23170;BME280;11753;43.144;24.714;2023-03-29T01:35:43;100025.97;;;1.53;68.29
23170;BME280;11753;43.144;24.714;2023-03-29T01:36:49;100008.84;;;1.50;68.51
23170;BME280;11753;43.144;24.714;2023-03-29T01:38:00;100013.94;;;1.52;68.56
23170;BME280;11753;43.144;24.714;2023-03-29T01:39:05;100012.06;;;1.54;68.38
23170;BME280;11753;43.144;24.714;2023-03-29T01:40:06;100030.34;;;1.52;68.46
23170;BME280;11753;43.144;24.714;2023-03-29T01:41:07;100024.88;;;1.57;68.17
23170;BME280;11753;43.144;24.714;2023-03-29T01:42:14;100016.34;;;1.55;68.36
23170;BME280;11753;43.144;24.714;2023-03-29T01:46:47;100027.75;;;1.52;68.65
23170;BME280;11753;43.144;24.714;2023-03-29T01:49:23;100060.06;;;1.47;68.35
23170;BME280;11753;43.144;24.714;2023-03-29T01:51:43;100012.91;;;1.54;68.36
23170;BME280;11753;43.144;24.714;2023-03-29T01:54:12;100021.22;;;1.45;68.47
23170;BME280;11753;43.144;24.714;2023-03-29T01:55:21;100018.84;;;1.56;68.28
23170;BME280;11753;43.144;24.714;2023-03-29T01:56:26;100003.22;;;1.42;68.09
23170;BME280;11753;43.144;24.714;2023-03-29T01:57:29;100020.09;;;1.49;68.14
23170;BME280;11753;43.144;24.714;2023-03-29T01:58:35;100008.66;;;1.53;67.81
23170;BME280;11753;43.144;24.714;2023-03-29T01:59:41;100030.06;;;1.57;67.35
23170;BME280;11753;43.144;24.714;2023-03-29T02:00:44;100021.88;;;1.64;67.42
23170;BME280;11753;43.144;24.714;2023-03-29T02:01:51;100010.91;;;1.59;67.37
23170;BME280;11753;43.144;24.714;2023-03-29T02:02:56;99990.88;;;1.61;67.35
23170;BME280;11753;43.144;24.714;2023-03-29T02:04:02;100017.03;;;1.58;67.50
23170;BME280;11753;43.144;24.714;2023-03-29T02:05:04;100021.88;;;1.49;67.53
23170;BME280;11753;43.144;24.714;2023-03-29T02:06:08;100051.84;;;1.38;67.56
23170;BME280;11753;43.144;24.714;2023-03-29T02:07:11;100017.38;;;1.52;67.10
23170;BME280;11753;43.144;24.714;2023-03-29T02:08:13;100015.34;;;1.57;67.39
23170;BME280;11753;43.144;24.714;2023-03-29T02:09:18;100018.84;;;1.56;67.25
23170;BME280;11753;43.144;24.714;2023-03-29T02:10:20;100037.78;;;1.58;67.13
23170;BME280;11753;43.144;24.714;2023-03-29T02:11:24;100025.72;;;1.57;67.23
23170;BME280;11753;43.144;24.714;2023-03-29T02:12:26;100020.34;;;1.60;66.68
23170;BME280;11753;43.144;24.714;2023-03-29T02:13:27;100018.78;;;1.58;66.84
23170;BME280;11753;43.144;24.714;2023-03-29T02:14:28;100058.13;;;1.50;67.04
23170;BME280;11753;43.144;24.714;2023-03-29T02:15:29;100010.31;;;1.54;66.71
23170;BME280;11753;43.144;24.714;2023-03-29T02:16:37;100027.75;;;1.52;66.97
23170;BME280;11753;43.144;24.714;2023-03-29T02:17:38;100023.13;;;1.57;66.48
23170;BME280;11753;43.144;24.714;2023-03-29T02:18:41;100066.16;;;1.61;66.42
23170;BME280;11753;43.144;24.714;2023-03-29T02:19:46;100035.00;;;1.61;66.42
23170;BME280;11753;43.144;24.714;2023-03-29T02:20:51;100033.72;;;1.69;66.55
23170;BME280;11753;43.144;24.714;2023-03-29T02:23:16;100058.59;;;1.57;66.39
23170;BME280;11753;43.144;24.714;2023-03-29T02:24:21;100052.09;;;1.65;66.17
23170;BME280;11753;43.144;24.714;2023-03-29T02:25:24;100052.09;;;1.65;66.00
23170;BME280;11753;43.144;24.714;2023-03-29T02:26:25;100036.84;;;1.59;66.34
23170;BME280;11753;43.144;24.714;2023-03-29T02:27:28;100070.59;;;1.59;66.33
23170;BME280;11753;43.144;24.714;2023-03-29T02:28:30;100036.75;;;1.61;66.46
23170;BME280;11753;43.144;24.714;2023-03-29T02:29:31;100050.41;;;1.49;66.82
23170;BME280;11753;43.144;24.714;2023-03-29T02:32:04;100071.44;;;1.44;67.07
23170;BME280;11753;43.144;24.714;2023-03-29T02:33:15;100078.81;;;1.52;66.62
23170;BME280;11753;43.144;24.714;2023-03-29T02:34:25;100052.34;;;1.45;66.70
23170;BME280;11753;43.144;24.714;2023-03-29T02:35:35;100072.28;;;1.45;66.90
23170;BME280;11753;43.144;24.714;2023-03-29T02:36:42;100092.44;;;1.55;66.66
23170;BME280;11753;43.144;24.714;2023-03-29T02:37:45;100039.28;;;1.47;66.59
23170;BME280;11753;43.144;24.714;2023-03-29T02:38:48;100075.38;;;1.51;66.68
23170;BME280;11753;43.144;24.714;2023-03-29T02:39:51;100068.75;;;1.46;66.91
23170;BME280;11753;43.144;24.714;2023-03-29T02:40:54;100073.78;;;1.33;67.22
23170;BME280;11753;43.144;24.714;2023-03-29T02:41:56;100061.41;;;1.38;67.32
23170;BME280;11753;43.144;24.714;2023-03-29T02:43:00;100078.97;;;1.33;67.39
23170;BME280;11753;43.144;24.714;2023-03-29T02:44:03;100071.09;;;1.34;67.39
23170;BME280;11753;43.144;24.714;2023-03-29T02:45:09;100068.78;;;1.30;67.84
23170;BME280;11753;43.144;24.714;2023-03-29T02:46:13;100066.75;;;1.35;67.47
23170;BME280;11753;43.144;24.714;2023-03-29T02:47:41;100080.63;;;1.34;67.76
23170;BME280;11753;43.144;24.714;2023-03-29T02:48:41;100073.78;;;1.33;67.72
23170;BME280;11753;43.144;24.714;2023-03-29T02:49:45;100077.72;;;1.24;68.10
23170;BME280;11753;43.144;24.714;2023-03-29T02:50:49;100087.84;;;1.29;68.15
23170;BME280;11753;43.144;24.714;2023-03-29T02:51:53;100074.63;;;1.33;67.89
23170;BME280;11753;43.144;24.714;2023-03-29T02:52:58;100073.78;;;1.33;67.73
23170;BME280;11753;43.144;24.714;2023-03-29T02:54:03;100075.44;;;1.34;67.99
23170;BME280;11753;43.144;24.714;2023-03-29T02:55:10;100077.63;;;1.26;68.11
23170;BME280;11753;43.144;24.714;2023-03-29T02:56:14;100085.72;;;1.20;68.33
23170;BME280;11753;43.144;24.714;2023-03-29T02:57:15;100098.56;;;1.23;68.43
23170;BME280;11753;43.144;24.714;2023-03-29T02:58:16;100076.56;;;1.30;68.47
23170;BME280;11753;43.144;24.714;2023-03-29T02:59:17;100086.34;;;1.25;68.44
23170;BME280;11753;43.144;24.714;2023-03-29T03:00:24;100089.53;;;1.30;68.46
23170;BME280;11753;43.144;24.714;2023-03-29T03:01:25;100099.91;;;1.30;68.38
23170;BME280;11753;43.144;24.714;2023-03-29T03:02:26;100100.66;;;1.32;68.21
23170;BME280;11753;43.144;24.714;2023-03-29T03:03:27;100081.31;;;1.37;68.21
23170;BME280;11753;43.144;24.714;2023-03-29T03:04:28;100089.75;;;1.25;68.27
23170;BME280;11753;43.144;24.714;2023-03-29T03:05:29;100104.75;;;1.36;68.23
23170;BME280;11753;43.144;24.714;2023-03-29T03:06:30;100097.81;;;1.36;68.22
23170;BME280;11753;43.144;24.714;2023-03-29T03:07:30;100091.69;;;1.22;68.44
23170;BME280;11753;43.144;24.714;2023-03-29T03:08:32;100100.22;;;1.24;68.70
23170;BME280;11753;43.144;24.714;2023-03-29T03:09:33;100092.19;;;1.28;68.56
23170;BME280;11753;43.144;24.714;2023-03-29T03:10:35;100082.81;;;1.26;68.64
23170;BME280;11753;43.144;24.714;2023-03-29T03:11:37;100090.59;;;1.26;68.79
23170;BME280;11753;43.144;24.714;2023-03-29T03:12:38;100093.28;;;1.24;68.55
23170;BME280;11753;43.144;24.714;2023-03-29T03:13:38;100097.53;;;1.25;68.44
23170;BME280;11753;43.144;24.714;2023-03-29T03:14:39;100100.56;;;1.33;68.42
23170;BME280;11753;43.144;24.714;2023-03-29T03:15:40;100105.41;;;1.40;68.17
23170;BME280;11753;43.144;24.714;2023-03-29T03:16:42;100104.75;;;1.36;67.91
23170;BME280;11753;43.144;24.714;2023-03-29T03:17:42;100124.50;;;1.38;67.98
23170;BME280;11753;43.144;24.714;2023-03-29T03:18:44;100099.81;;;1.31;68.21
23170;BME280;11753;43.144;24.714;2023-03-29T03:19:45;100116.94;;;1.34;68.17
23170;BME280;11753;43.144;24.714;2023-03-29T03:20:57;100110.59;;;1.24;68.63
23170;BME280;11753;43.144;24.714;2023-03-29T03:21:58;100112.03;;;1.29;68.46
23170;BME280;11753;43.144;24.714;2023-03-29T03:22:59;100101.91;;;1.25;68.59
23170;BME280;11753;43.144;24.714;2023-03-29T03:24:03;100108.75;;;1.26;68.52
23170;BME280;11753;43.144;24.714;2023-03-29T03:25:05;100108.94;;;1.23;68.30
23170;BME280;11753;43.144;24.714;2023-03-29T03:26:09;100110.59;;;1.24;68.54
23170;BME280;11753;43.144;24.714;2023-03-29T03:27:09;100112.28;;;1.25;68.73
23170;BME280;11753;43.144;24.714;2023-03-29T03:28:11;100119.13;;;1.26;68.76
23170;BME280;11753;43.144;24.714;2023-03-29T03:29:13;100104.72;;;1.20;68.50
23170;BME280;11753;43.144;24.714;2023-03-29T03:30:15;100129.50;;;1.26;68.38
23170;BME280;11753;43.144;24.714;2023-03-29T03:31:16;100118.81;;;1.32;68.40
23170;BME280;11753;43.144;24.714;2023-03-29T03:32:17;100127.66;;;1.28;68.45
23170;BME280;11753;43.144;24.714;2023-03-29T03:33:18;100116.63;;;1.24;68.34
23170;BME280;11753;43.144;24.714;2023-03-29T03:34:20;100121.97;;;1.21;68.39
23170;BME280;11753;43.144;24.714;2023-03-29T03:35:21;100119.44;;;1.20;68.54
23170;BME280;11753;43.144;24.714;2023-03-29T03:36:22;100121.13;;;1.21;68.65
23170;BME280;11753;43.144;24.714;2023-03-29T03:37:26;100119.44;;;1.20;68.54
23170;BME280;11753;43.144;24.714;2023-03-29T03:38:28;100121.47;;;1.15;68.76
23170;BME280;11753;43.144;24.714;2023-03-29T03:39:29;100127.22;;;1.20;68.80
23170;BME280;11753;43.144;24.714;2023-03-29T03:40:30;100119.31;;;1.23;68.77
23170;BME280;11753;43.144;24.714;2023-03-29T03:41:33;100121.97;;;1.21;68.70
23170;BME280;11753;43.144;24.714;2023-03-29T03:42:33;100115.69;;;1.25;68.71
23170;BME280;11753;43.144;24.714;2023-03-29T03:43:34;100115.03;;;1.22;68.58
23170;BME280;11753;43.144;24.714;2023-03-29T03:44:35;100122.31;;;1.31;68.26
23170;BME280;11753;43.144;24.714;2023-03-29T03:45:37;100113.00;;;1.27;68.46
23170;BME280;11753;43.144;24.714;2023-03-29T03:46:39;100127.19;;;1.37;68.04
23170;BME280;11753;43.144;24.714;2023-03-29T03:47:40;100104.25;;;1.29;68.17
23170;BME280;11753;43.144;24.714;2023-03-29T03:48:42;100111.44;;;1.24;67.95
23170;BME280;11753;43.144;24.714;2023-03-29T03:49:43;100118.19;;;1.27;67.96
23170;BME280;11753;43.144;24.714;2023-03-29T03:51:01;100117.78;;;1.34;67.92
23170;BME280;11753;43.144;24.714;2023-03-29T03:52:02;100121.31;;;1.33;67.72
23170;BME280;11753;43.144;24.714;2023-03-29T03:53:03;100117.28;;;1.28;67.64
23170;BME280;11753;43.144;24.714;2023-03-29T03:54:04;100114.69;;;1.28;67.38
23170;BME280;11753;43.144;24.714;2023-03-29T03:55:06;100112.09;;;1.28;67.60
23170;BME280;11753;43.144;24.714;2023-03-29T03:56:09;100120.47;;;1.33;67.23
23170;BME280;11753;43.144;24.714;2023-03-29T03:57:09;100119.72;;;1.31;67.10
23170;BME280;11753;43.144;24.714;2023-03-29T03:58:10;100111.34;;;1.26;67.16
23170;BME280;11753;43.144;24.714;2023-03-29T03:59:11;100111.59;;;1.21;67.37
23170;BME280;11753;43.144;24.714;2023-03-29T04:00:12;100110.00;;;1.19;67.40
23170;BME280;11753;43.144;24.714;2023-03-29T04:01:19;100109.75;;;1.07;67.73
23170;BME280;11753;43.144;24.714;2023-03-29T04:02:19;100121.78;;;1.08;67.75
23170;BME280;11753;43.144;24.714;2023-03-29T04:03:21;100111.56;;;1.05;67.89
23170;BME280;11753;43.144;24.714;2023-03-29T04:04:22;100117.34;;;1.10;67.93
23170;BME280;11753;43.144;24.714;2023-03-29T04:05:23;100115.09;;;1.20;67.51
23170;BME280;11753;43.144;24.714;2023-03-29T04:06:25;100121.47;;;1.15;67.04
23170;BME280;11753;43.144;24.714;2023-03-29T04:07:26;100110.19;;;1.16;67.24
23170;BME280;11753;43.144;24.714;2023-03-29T04:08:27;100116.13;;;1.18;67.23
23170;BME280;11753;43.144;24.714;2023-03-29T04:09:29;100126.31;;;1.21;66.95
23170;BME280;11753;43.144;24.714;2023-03-29T04:10:31;100115.88;;;1.22;67.08
23170;BME280;11753;43.144;24.714;2023-03-29T04:11:32;100121.13;;;1.21;66.99
23170;BME280;11753;43.144;24.714;2023-03-29T04:12:33;100108.00;;;1.24;66.58
23170;BME280;11753;43.144;24.714;2023-03-29T04:13:35;100120.22;;;1.22;66.73
23170;BME280;11753;43.144;24.714;2023-03-29T04:14:36;100126.66;;;1.15;66.72
23170;BME280;11753;43.144;24.714;2023-03-29T04:15:37;100131.44;;;1.22;66.58
23170;BME280;11753;43.144;24.714;2023-03-29T04:16:38;100131.34;;;1.24;66.74
23170;BME280;11753;43.144;24.714;2023-03-29T04:17:39;100120.97;;;1.24;66.11
23170;BME280;11753;43.144;24.714;2023-03-29T04:18:40;100124.63;;;1.20;66.50
23170;BME280;11753;43.144;24.714;2023-03-29T04:19:41;100133.03;;;1.25;66.06
23170;BME280;11753;43.144;24.714;2023-03-29T04:20:42;100129.34;;;1.29;66.08
23170;BME280;11753;43.144;24.714;2023-03-29T04:21:43;100134.38;;;1.32;66.22
23170;BME280;11753;43.144;24.714;2023-03-29T04:22:47;100141.22;;;1.33;66.16
23170;BME280;11753;43.144;24.714;2023-03-29T04:23:48;100130.72;;;1.36;66.16
23170;BME280;11753;43.144;24.714;2023-03-29T04:24:50;100127.84;;;1.25;65.76
23170;BME280;11753;43.144;24.714;2023-03-29T04:25:54;100156.97;;;1.30;65.87
23170;BME280;11753;43.144;24.714;2023-03-29T04:26:59;100138.97;;;1.27;65.59
23170;BME280;11753;43.144;24.714;2023-03-29T04:28:00;100142.47;;;1.26;65.79
23170;BME280;11753;43.144;24.714;2023-03-29T04:29:00;100132.69;;;1.31;65.77
23170;BME280;11753;43.144;24.714;2023-03-29T04:30:02;100147.66;;;1.26;65.47
23170;BME280;11753;43.144;24.714;2023-03-29T04:31:03;100134.88;;;1.23;65.80
23170;BME280;11753;43.144;24.714;2023-03-29T04:32:04;100133.69;;;1.28;65.81
23170;BME280;11753;43.144;24.714;2023-03-29T04:33:05;100151.00;;;1.28;65.36
23170;BME280;11753;43.144;24.714;2023-03-29T04:34:06;100136.88;;;1.33;65.55
23170;BME280;11753;43.144;24.714;2023-03-29T04:35:08;100134.03;;;1.38;65.27
23170;BME280;11753;43.144;24.714;2023-03-29T04:36:09;100133.38;;;1.50;64.81
23170;BME280;11753;43.144;24.714;2023-03-29T04:37:10;100127.09;;;1.54;64.43
23170;BME280;11753;43.144;24.714;2023-03-29T04:38:11;100133.38;;;1.50;64.55
23170;BME280;11753;43.144;24.714;2023-03-29T04:39:12;100141.50;;;1.44;64.44
23170;BME280;11753;43.144;24.714;2023-03-29T04:40:14;100139.41;;;1.51;64.51
23170;BME280;11753;43.144;24.714;2023-03-29T04:41:15;100131.88;;;1.46;64.14
23170;BME280;11753;43.144;24.714;2023-03-29T04:42:15;100136.88;;;1.49;64.79
23170;BME280;11753;43.144;24.714;2023-03-29T04:43:17;100131.53;;;1.52;63.69
23170;BME280;11753;43.144;24.714;2023-03-29T04:44:17;100139.47;;;1.49;64.03
23170;BME280;11753;43.144;24.714;2023-03-29T04:45:18;100137.66;;;1.51;64.19
23170;BME280;11753;43.144;24.714;2023-03-29T04:46:19;100144.19;;;1.58;64.01
23170;BME280;11753;43.144;24.714;2023-03-29T04:47:21;100145.84;;;1.59;63.52
23170;BME280;11753;43.144;24.714;2023-03-29T04:48:23;100138.41;;;1.53;63.30
23170;BME280;11753;43.144;24.714;2023-03-29T04:49:24;100133.03;;;1.56;63.62
23170;BME280;11753;43.144;24.714;2023-03-29T04:50:26;100130.88;;;1.64;63.26
23170;BME280;11753;43.144;24.714;2023-03-29T04:51:27;100133.03;;;1.56;63.24
23170;BME280;11753;43.144;24.714;2023-03-29T04:52:28;100134.31;;;1.65;63.04
23170;BME280;11753;43.144;24.714;2023-03-29T04:53:32;100139.56;;;1.63;62.77
23170;BME280;11753;43.144;24.714;2023-03-29T04:54:33;100134.47;;;1.62;62.35
23170;BME280;11753;43.144;24.714;2023-03-29T04:55:36;100131.88;;;1.62;62.33
23170;BME280;11753;43.144;24.714;2023-03-29T04:56:37;100139.56;;;1.63;62.15
23170;BME280;11753;43.144;24.714;2023-03-29T04:57:37;100137.56;;;1.69;61.90
23170;BME280;11753;43.144;24.714;2023-03-29T04:58:38;100126.84;;;1.75;62.16
23170;BME280;11753;43.144;24.714;2023-03-29T04:59:39;100136.16;;;1.79;62.31
23170;BME280;11753;43.144;24.714;2023-03-29T05:00:40;100140.06;;;1.86;61.70
23170;BME280;11753;43.144;24.714;2023-03-29T05:01:42;100137.13;;;1.92;60.81
23170;BME280;11753;43.144;24.714;2023-03-29T05:02:43;100145.09;;;1.73;61.17
23170;BME280;11753;43.144;24.714;2023-03-29T05:03:45;100139.06;;;1.73;61.40
23170;BME280;11753;43.144;24.714;2023-03-29T05:04:45;100136.06;;;1.80;61.52
23170;BME280;11753;43.144;24.714;2023-03-29T05:05:46;100146.09;;;1.86;61.63
23170;BME280;11753;43.144;24.714;2023-03-29T05:06:47;100142.91;;;1.97;60.71
23170;BME280;11753;43.144;24.714;2023-03-29T05:07:49;100133.97;;;1.87;60.45
23170;BME280;11753;43.144;24.714;2023-03-29T05:08:50;100141.16;;;1.82;60.56
23170;BME280;11753;43.144;24.714;2023-03-29T05:09:51;100141.56;;;1.90;60.56
23170;BME280;11753;43.144;24.714;2023-03-29T05:10:52;100126.78;;;2.06;59.87
23170;BME280;11753;43.144;24.714;2023-03-29T05:11:53;100153.28;;;1.97;59.45
23170;BME280;11753;43.144;24.714;2023-03-29T05:12:54;100142.22;;;2.09;59.27
23170;BME280;11753;43.144;24.714;2023-03-29T05:13:55;100136.97;;;1.95;58.41
23170;BME280;11753;43.144;24.714;2023-03-29T05:15:03;100134.88;;;1.86;58.55
23170;BME280;11753;43.144;24.714;2023-03-29T05:16:05;100140.41;;;1.80;58.52
23170;BME280;11753;43.144;24.714;2023-03-29T05:17:07;100143.00;;;1.80;58.61
23170;BME280;11753;43.144;24.714;2023-03-29T05:18:08;100149.34;;;1.90;58.83
23170;BME280;11753;43.144;24.714;2023-03-29T05:19:10;100149.25;;;1.91;58.68
23170;BME280;11753;43.144;24.714;2023-03-29T05:20:11;100151.44;;;1.99;58.40
23170;BME280;11753;43.144;24.714;2023-03-29T05:21:12;100153.44;;;2.10;58.06
23170;BME280;11753;43.144;24.714;2023-03-29T05:22:13;100151.91;;;2.22;57.56
23170;BME280;11753;43.144;24.714;2023-03-29T05:23:14;100144.88;;;2.24;57.35
23170;BME280;11753;43.144;24.714;2023-03-29T05:24:16;100154.47;;;2.07;57.10
23170;BME280;11753;43.144;24.714;2023-03-29T05:25:17;100163.59;;;2.14;57.41
23170;BME280;11753;43.144;24.714;2023-03-29T05:26:19;100153.25;;;2.13;57.10
23170;BME280;11753;43.144;24.714;2023-03-29T05:27:21;100157.28;;;2.18;57.23
23170;BME280;11753;43.144;24.714;2023-03-29T05:28:23;100156.13;;;2.08;57.26
23170;BME280;11753;43.144;24.714;2023-03-29T05:29:24;100155.59;;;2.17;57.27
23170;BME280;11753;43.144;24.714;2023-03-29T05:30:25;100143.84;;;2.26;56.91
23170;BME280;11753;43.144;24.714;2023-03-29T05:31:27;100155.31;;;2.38;56.22
23170;BME280;11753;43.144;24.714;2023-03-29T05:32:28;100148.34;;;2.38;56.00
23170;BME280;11753;43.144;24.714;2023-03-29T05:33:30;100162.06;;;2.40;55.77
23170;BME280;11753;43.144;24.714;2023-03-29T05:34:31;100159.22;;;2.45;55.80
23170;BME280;11753;43.144;24.714;2023-03-29T05:35:32;100162.22;;;2.53;55.01
23170;BME280;11753;43.144;24.714;2023-03-29T05:36:35;100156.03;;;2.40;55.07
23170;BME280;11753;43.144;24.714;2023-03-29T05:37:37;100156.53;;;2.46;55.33
23170;BME280;11753;43.144;24.714;2023-03-29T05:38:42;100157.72;;;2.41;55.29
23170;BME280;11753;43.144;24.714;2023-03-29T05:39:45;100149.19;;;2.39;55.41
23170;BME280;11753;43.144;24.714;2023-03-29T05:40:48;100161.09;;;2.43;55.19
23170;BME280;11753;43.144;24.714;2023-03-29T05:41:49;100144.94;;;2.52;55.00
23170;BME280;11753;43.144;24.714;2023-03-29T05:42:51;100174.81;;;2.45;54.91
23170;BME280;11753;43.144;24.714;2023-03-29T05:43:52;100169.81;;;2.56;54.93
23170;BME280;11753;43.144;24.714;2023-03-29T05:44:53;100165.94;;;2.63;54.99
23170;BME280;11753;43.144;24.714;2023-03-29T05:45:54;100167.81;;;2.75;54.49
23170;BME280;11753;43.144;24.714;2023-03-29T05:46:56;100168.19;;;2.69;54.87
23170;BME280;11753;43.144;24.714;2023-03-29T05:47:57;100163.31;;;2.79;53.80
23170;BME280;11753;43.144;24.714;2023-03-29T05:48:57;100169.97;;;2.83;54.34